createdAt,value
2019-05-16T00:00:08.394Z,61.33
2019-05-16T00:01:09.351Z,62.12
2019-05-16T00:02:08.214Z,61.81
2019-05-16T00:03:08.040Z,61.94
2019-05-16T00:04:08.678Z,62.05
2019-05-16T00:05:08.372Z,62.56
2019-05-16T00:06:08.545Z,62.46
2019-05-16T00:07:08.070Z,62.77
2019-05-16T00:08:11.913Z,62.46
2019-05-16T00:09:08.129Z,62.46
2019-05-16T00:10:08.372Z,62.46
2019-05-16T00:11:08.630Z,62.15
2019-05-16T00:12:08.799Z,62.56
2019-05-16T00:13:08.530Z,62.25
2019-05-16T00:14:08.399Z,62.70
2019-05-16T00:15:09.085Z,63.00
2019-05-16T00:16:07.976Z,63.62
2019-05-16T00:17:08.354Z,63.21
2019-05-16T00:18:08.728Z,63.21
2019-05-16T00:19:09.129Z,63.10
2019-05-16T00:20:09.298Z,63.31
2019-05-16T00:21:08.712Z,63.52
2019-05-16T00:22:08.713Z,62.90
2019-05-16T00:23:07.912Z,63.21
2019-05-16T00:24:08.198Z,63.65
2019-05-16T00:25:08.661Z,63.31
2019-05-16T00:26:07.836Z,63.54
2019-05-16T00:27:08.320Z,63.75
2019-05-16T00:28:08.817Z,63.96
2019-05-16T00:29:08.009Z,63.96
2019-05-16T00:30:08.902Z,63.96
2019-05-16T00:31:08.649Z,64.68
2019-05-16T00:32:08.545Z,64.37
2019-05-16T00:33:08.312Z,65.09
2019-05-16T00:34:06.810Z,64.78
2019-05-16T00:35:08.886Z,64.89
2019-05-16T00:36:08.959Z,65.30
2019-05-16T00:37:08.669Z,65.81
2019-05-16T00:38:08.696Z,65.40
2019-05-16T00:39:08.402Z,65.81
2019-05-16T00:40:08.218Z,65.50
2019-05-16T00:41:08.516Z,65.33
2019-05-16T00:42:08.787Z,65.84
2019-05-16T00:43:08.047Z,65.40
2019-05-16T00:44:08.413Z,65.19
2019-05-16T00:45:08.878Z,65.74
2019-05-16T00:46:08.244Z,65.33
2019-05-16T00:47:08.705Z,65.53
2019-05-16T00:48:08.794Z,65.43
2019-05-16T00:49:08.302Z,65.64
2019-05-16T00:50:08.630Z,65.43
2019-05-16T00:51:07.814Z,65.64
2019-05-16T00:52:07.791Z,66.36
2019-05-16T00:53:08.966Z,66.18
2019-05-16T00:54:08.251Z,66.56
2019-05-16T00:55:08.385Z,66.56
2019-05-16T00:56:07.921Z,66.25
2019-05-16T00:57:08.500Z,66.60
2019-05-16T00:58:08.679Z,66.60
2019-05-16T00:59:07.918Z,66.15
2019-05-16T01:00:08.257Z,66.80
2019-05-16T01:01:08.589Z,67.93
2019-05-16T01:02:08.840Z,67.83
2019-05-16T01:03:08.148Z,67.73
2019-05-16T01:04:07.975Z,67.73
2019-05-16T01:05:08.494Z,67.45
2019-05-16T01:06:18.399Z,67.55
2019-05-16T01:07:08.238Z,67.55
2019-05-16T01:08:07.839Z,67.35
2019-05-16T01:09:08.522Z,67.55
2019-05-16T01:10:08.767Z,67.14
2019-05-16T01:11:07.903Z,67.55
2019-05-16T01:12:08.362Z,67.55
2019-05-16T01:13:08.013Z,67.55
2019-05-16T01:14:08.301Z,67.86
2019-05-16T01:15:07.708Z,67.69
2019-05-16T01:16:08.389Z,67.76
2019-05-16T01:17:08.482Z,67.76
2019-05-16T01:18:08.041Z,68.17
2019-05-16T01:19:08.539Z,67.97
2019-05-16T01:20:08.333Z,68.38
2019-05-16T01:21:07.831Z,68.59
2019-05-16T01:22:08.360Z,68.38
2019-05-16T01:23:08.717Z,68.27
2019-05-16T01:24:08.015Z,68.69
2019-05-16T01:25:09.030Z,68.38
2019-05-16T01:26:07.929Z,68.69
2019-05-16T01:27:08.222Z,68.38
2019-05-16T01:28:06.250Z,68.48
2019-05-16T01:29:08.129Z,68.69
2019-05-16T01:30:06.231Z,69.10
2019-05-16T01:31:08.394Z,69.10
2019-05-16T01:32:08.233Z,69.13
2019-05-16T01:33:08.663Z,69.13
2019-05-16T01:34:07.811Z,69.44
2019-05-16T01:35:08.195Z,69.03
2019-05-16T01:36:06.157Z,69.85
2019-05-16T01:37:08.142Z,69.13
2019-05-16T01:38:08.507Z,69.75
2019-05-16T01:39:08.017Z,69.44
2019-05-16T01:40:08.038Z,69.75
2019-05-16T01:41:08.616Z,69.75
2019-05-16T01:42:07.957Z,69.54
2019-05-16T01:43:08.400Z,70.27
2019-05-16T01:44:07.861Z,69.54
2019-05-16T01:45:08.101Z,69.89
2019-05-16T01:46:08.257Z,69.75
2019-05-16T01:47:06.039Z,69.54
2019-05-16T01:48:08.052Z,70.27
2019-05-16T01:49:08.085Z,70.20
2019-05-16T01:50:06.005Z,70.37
2019-05-16T01:51:07.752Z,70.89
2019-05-16T01:52:08.303Z,70.20
2019-05-16T01:53:08.444Z,70.51
2019-05-16T01:54:05.967Z,70.92
2019-05-16T01:55:08.012Z,71.02
2019-05-16T01:56:05.944Z,70.72
2019-05-16T01:57:08.004Z,71.12
2019-05-16T01:58:07.858Z,70.82
2019-05-16T01:59:05.931Z,71.88
2019-05-16T02:00:08.190Z,71.57
2019-05-16T02:01:13.241Z,71.57
2019-05-16T02:02:08.434Z,72.30
2019-05-16T02:03:08.112Z,72.06
2019-05-16T02:04:05.866Z,72.19
2019-05-16T02:05:08.105Z,71.88
2019-05-16T02:06:05.833Z,71.98
2019-05-16T02:07:08.389Z,72.36
2019-05-16T02:08:05.840Z,72.09
2019-05-16T02:09:08.071Z,72.71
2019-05-16T02:10:08.526Z,72.50
2019-05-16T02:11:05.787Z,72.61
2019-05-16T02:12:08.203Z,72.30
2019-05-16T02:13:05.800Z,72.09
2019-05-16T02:14:05.759Z,72.50
2019-05-16T02:15:07.741Z,72.09
2019-05-16T02:16:08.167Z,72.50
2019-05-16T02:17:05.718Z,72.09
2019-05-16T02:18:08.018Z,71.88
2019-05-16T02:19:05.703Z,71.57
2019-05-16T02:20:05.692Z,72.40
2019-05-16T02:21:07.739Z,72.64
2019-05-16T02:22:05.675Z,72.09
2019-05-16T02:23:07.886Z,72.09
2019-05-16T02:24:05.648Z,72.61
2019-05-16T02:25:07.643Z,73.02
2019-05-16T02:26:07.833Z,73.33
2019-05-16T02:27:05.618Z,73.36
2019-05-16T02:28:05.600Z,73.05
2019-05-16T02:29:05.596Z,73.57
2019-05-16T02:30:05.600Z,73.26
2019-05-16T02:31:05.573Z,72.53
2019-05-16T02:32:05.589Z,72.95
2019-05-16T02:33:05.549Z,72.71
2019-05-16T02:34:05.543Z,72.64
2019-05-16T02:35:05.552Z,73.05
2019-05-16T02:36:05.516Z,73.02
2019-05-16T02:37:20.216Z,73.02
2019-05-16T02:38:06.494Z,72.74
2019-05-16T02:39:05.515Z,72.74
2019-05-16T02:40:05.489Z,72.85
2019-05-16T02:41:05.478Z,73.57
2019-05-16T02:42:05.465Z,73.67
2019-05-16T02:43:05.445Z,73.57
2019-05-16T02:44:05.500Z,73.77
2019-05-16T02:45:05.443Z,73.98
2019-05-16T02:46:05.415Z,74.08
2019-05-16T02:47:05.408Z,73.88
2019-05-16T02:48:05.420Z,73.57
2019-05-16T02:49:05.398Z,73.77
2019-05-16T02:50:05.373Z,73.71
2019-05-16T02:51:05.366Z,74.12
2019-05-16T02:52:05.362Z,73.98
2019-05-16T02:53:05.339Z,73.98
2019-05-16T02:54:05.354Z,73.60
2019-05-16T02:55:05.316Z,73.71
2019-05-16T02:56:05.326Z,73.81
2019-05-16T02:57:05.295Z,73.81
2019-05-16T02:58:05.297Z,73.57
2019-05-16T02:59:05.288Z,73.88
2019-05-16T03:00:05.262Z,73.67
2019-05-16T03:01:05.272Z,73.71
2019-05-16T03:02:05.241Z,73.81
2019-05-16T03:03:05.253Z,73.91
2019-05-16T03:04:05.232Z,74.12
2019-05-16T03:05:05.264Z,74.33
2019-05-16T03:06:05.203Z,74.22
2019-05-16T03:07:05.188Z,74.33
2019-05-16T03:08:05.188Z,74.43
2019-05-16T03:09:05.625Z,74.33
2019-05-16T03:10:05.162Z,74.22
2019-05-16T03:11:05.150Z,74.40
2019-05-16T03:12:05.136Z,74.40
2019-05-16T03:13:05.123Z,74.53
2019-05-16T03:14:05.114Z,74.95
2019-05-16T03:15:05.120Z,74.95
2019-05-16T03:16:05.095Z,74.33
2019-05-16T03:17:05.106Z,74.63
2019-05-16T03:18:05.074Z,74.43
2019-05-16T03:19:05.061Z,74.50
2019-05-16T03:20:05.073Z,74.22
2019-05-16T03:21:05.053Z,74.40
2019-05-16T03:22:05.029Z,74.19
2019-05-16T03:23:05.026Z,74.53
2019-05-16T03:24:05.018Z,74.53
2019-05-16T03:25:05.008Z,74.43
2019-05-16T03:26:04.988Z,74.84
2019-05-16T03:27:04.979Z,75.15
2019-05-16T03:28:04.966Z,74.95
2019-05-16T03:29:04.968Z,74.95
2019-05-16T03:30:04.967Z,74.84
2019-05-16T03:31:06.263Z,74.43
2019-05-16T03:32:04.930Z,74.53
2019-05-16T03:33:05.917Z,74.22
2019-05-16T03:34:07.462Z,74.53
2019-05-16T03:35:06.070Z,74.63
2019-05-16T03:36:05.394Z,75.05
2019-05-16T03:37:05.192Z,74.84
2019-05-16T03:38:05.885Z,74.53
2019-05-16T03:39:04.850Z,74.84
2019-05-16T03:40:04.862Z,74.33
2019-05-16T03:41:04.837Z,74.22
2019-05-16T03:42:04.819Z,74.95
2019-05-16T03:43:04.822Z,74.63
2019-05-16T03:44:04.809Z,74.91
2019-05-16T03:45:04.807Z,74.53
2019-05-16T03:46:04.776Z,74.74
2019-05-16T03:47:04.811Z,75.15
2019-05-16T03:48:04.755Z,74.95
2019-05-16T03:49:04.775Z,74.71
2019-05-16T03:50:04.756Z,74.12
2019-05-16T03:51:04.736Z,74.33
2019-05-16T03:52:04.716Z,74.43
2019-05-16T03:53:04.716Z,74.22
2019-05-16T03:54:04.705Z,74.43
2019-05-16T03:55:04.792Z,74.02
2019-05-16T03:56:04.671Z,74.53
2019-05-16T03:57:04.658Z,74.95
2019-05-16T03:58:04.649Z,74.95
2019-05-16T03:59:04.636Z,74.91
2019-05-16T04:00:04.629Z,74.91
2019-05-16T04:01:04.621Z,74.74
2019-05-16T04:02:04.625Z,74.50
2019-05-16T04:03:04.598Z,74.91
2019-05-16T04:04:04.602Z,75.01
2019-05-16T04:05:04.580Z,75.32
2019-05-16T04:06:04.588Z,75.22
2019-05-16T04:07:04.584Z,75.32
2019-05-16T04:08:14.732Z,74.91
2019-05-16T04:09:05.530Z,75.12
2019-05-16T04:10:04.555Z,75.32
2019-05-16T04:11:04.522Z,75.53
2019-05-16T04:12:04.501Z,74.91
2019-05-16T04:13:04.653Z,74.71
2019-05-16T04:14:04.487Z,74.50
2019-05-16T04:15:04.466Z,74.88
2019-05-16T04:16:04.488Z,74.57
2019-05-16T04:17:04.451Z,74.67
2019-05-16T04:18:04.438Z,75.09
2019-05-16T04:19:04.424Z,74.88
2019-05-16T04:20:04.414Z,75.49
2019-05-16T04:21:04.431Z,74.88
2019-05-16T04:22:04.394Z,74.57
2019-05-16T04:23:04.384Z,74.36
2019-05-16T04:24:04.372Z,74.15
2019-05-16T04:25:04.361Z,73.95
2019-05-16T04:26:04.360Z,73.85
2019-05-16T04:27:04.352Z,73.95
2019-05-16T04:28:04.332Z,73.85
2019-05-16T04:29:04.338Z,73.74
2019-05-16T04:30:04.324Z,73.43
2019-05-16T04:31:04.320Z,73.54
2019-05-16T04:32:04.289Z,73.43
2019-05-16T04:33:04.284Z,72.78
2019-05-16T04:34:04.271Z,72.67
2019-05-16T04:35:04.257Z,72.88
2019-05-16T04:36:04.259Z,72.26
2019-05-16T04:37:04.350Z,72.44
2019-05-16T04:38:04.227Z,72.74
2019-05-16T04:39:04.214Z,72.54
2019-05-16T04:40:04.214Z,72.44
2019-05-16T04:41:04.212Z,72.13
2019-05-16T04:42:04.209Z,72.13
2019-05-16T04:43:04.174Z,72.02
2019-05-16T04:44:04.898Z,72.30
2019-05-16T04:45:04.161Z,71.99
2019-05-16T04:46:04.160Z,72.23
2019-05-16T04:47:04.139Z,71.37
2019-05-16T04:48:04.129Z,71.89
2019-05-16T04:49:04.120Z,71.78
2019-05-16T04:50:04.106Z,71.16
2019-05-16T04:51:04.085Z,71.26
2019-05-16T04:52:04.105Z,71.16
2019-05-16T04:53:04.064Z,70.31
2019-05-16T04:54:07.200Z,70.31
2019-05-16T04:55:04.046Z,70.20
2019-05-16T04:56:04.042Z,69.07
2019-05-16T04:57:04.045Z,69.27
2019-05-16T04:58:04.017Z,69.48
2019-05-16T04:59:04.026Z,69.45
2019-05-16T05:00:03.991Z,69.04
2019-05-16T05:01:04.016Z,69.65
2019-05-16T05:02:03.994Z,69.24
2019-05-16T05:03:03.959Z,69.24
2019-05-16T05:04:10.826Z,69.45
2019-05-16T05:05:04.945Z,69.04
2019-05-16T05:06:03.929Z,68.59
2019-05-16T05:07:03.930Z,68.80
2019-05-16T05:08:03.905Z,68.39
2019-05-16T05:09:03.970Z,68.29
2019-05-16T05:10:03.902Z,68.18
2019-05-16T05:11:03.873Z,67.87
2019-05-16T05:12:04.826Z,68.08
2019-05-16T05:13:03.863Z,67.46
2019-05-16T05:14:03.842Z,67.36
2019-05-16T05:15:03.835Z,67.46
2019-05-16T05:16:03.826Z,68.08
2019-05-16T05:17:05.363Z,67.53
2019-05-16T05:18:03.799Z,67.43
2019-05-16T05:19:03.788Z,67.84
2019-05-16T05:20:03.777Z,67.43
2019-05-16T05:21:03.785Z,67.43
2019-05-16T05:22:03.767Z,66.19
2019-05-16T05:23:03.750Z,66.61
2019-05-16T05:24:03.750Z,66.71
2019-05-16T05:25:03.731Z,66.47
2019-05-16T05:26:03.741Z,66.27
2019-05-16T05:27:03.714Z,66.37
2019-05-16T05:28:03.701Z,65.95
2019-05-16T05:29:03.707Z,66.47
2019-05-16T05:30:03.692Z,66.37
2019-05-16T05:31:03.664Z,65.65
2019-05-16T05:32:05.086Z,65.83
2019-05-16T05:33:03.677Z,65.92
2019-05-16T05:34:03.630Z,65.92
2019-05-16T05:35:03.647Z,65.62
2019-05-16T05:36:03.619Z,65.31
2019-05-16T05:37:03.630Z,64.87
2019-05-16T05:38:03.593Z,64.97
2019-05-16T05:39:11.794Z,64.87
2019-05-16T05:40:04.567Z,64.87
2019-05-16T05:41:03.582Z,64.97
2019-05-16T05:42:03.562Z,64.76
2019-05-16T05:43:03.542Z,65.05
2019-05-16T05:44:03.525Z,64.76
2019-05-16T05:45:03.518Z,64.87
2019-05-16T05:46:03.521Z,65.69
2019-05-16T05:47:03.513Z,65.48
2019-05-16T05:48:03.490Z,64.94
2019-05-16T05:49:03.471Z,65.86
2019-05-16T05:50:03.477Z,64.84
2019-05-16T05:51:03.455Z,65.05
2019-05-16T05:52:03.454Z,64.12
2019-05-16T05:53:03.435Z,64.19
2019-05-16T05:54:03.422Z,64.40
2019-05-16T05:55:03.433Z,64.09
2019-05-16T05:56:03.399Z,64.29
2019-05-16T05:57:03.412Z,64.81
2019-05-16T05:58:03.388Z,64.29
2019-05-16T05:59:03.370Z,63.85
2019-05-16T06:00:03.353Z,64.50
2019-05-16T06:01:03.348Z,64.57
2019-05-16T06:02:03.350Z,63.65
2019-05-16T06:03:03.335Z,63.75
2019-05-16T06:04:03.330Z,63.54
2019-05-16T06:05:03.299Z,63.65
2019-05-16T06:06:03.288Z,64.47
2019-05-16T06:07:03.277Z,63.65
2019-05-16T06:08:03.295Z,62.83
2019-05-16T06:09:03.256Z,63.03
2019-05-16T06:10:03.245Z,63.65
2019-05-16T06:11:03.253Z,63.72
2019-05-16T06:12:03.235Z,63.31
2019-05-16T06:13:03.237Z,62.39
2019-05-16T06:14:03.206Z,63.10
2019-05-16T06:15:08.220Z,62.70
2019-05-16T06:16:04.178Z,62.90
2019-05-16T06:17:03.168Z,62.80
2019-05-16T06:18:03.183Z,62.56
2019-05-16T06:19:03.153Z,62.39
2019-05-16T06:20:03.177Z,62.15
2019-05-16T06:21:03.124Z,62.36
2019-05-16T06:22:03.124Z,62.66
2019-05-16T06:23:03.113Z,62.46
2019-05-16T06:24:03.099Z,62.46
2019-05-16T06:25:03.096Z,62.43
2019-05-16T06:26:03.071Z,62.02
2019-05-16T06:27:03.070Z,62.23
2019-05-16T06:28:03.062Z,62.54
2019-05-16T06:29:03.042Z,61.92
2019-05-16T06:30:03.029Z,61.92
2019-05-16T06:31:03.034Z,61.82
2019-05-16T06:32:03.013Z,62.19
2019-05-16T06:33:03.017Z,61.69
2019-05-16T06:34:08.152Z,61.69
2019-05-16T06:35:03.971Z,61.18
2019-05-16T06:36:02.971Z,61.07
2019-05-16T06:37:02.971Z,61.38
2019-05-16T06:38:02.955Z,61.15
2019-05-16T06:39:02.933Z,61.45
2019-05-16T06:40:02.969Z,61.66
2019-05-16T06:41:02.918Z,61.45
2019-05-16T06:42:02.909Z,61.52
2019-05-16T06:43:02.978Z,61.35
2019-05-16T06:44:02.890Z,60.91
2019-05-16T06:45:02.901Z,61.11
2019-05-16T06:46:02.856Z,60.91
2019-05-16T06:47:15.943Z,60.71
2019-05-16T06:48:03.855Z,60.68
2019-05-16T06:49:02.825Z,61.19
2019-05-16T06:50:02.818Z,60.78
2019-05-16T06:51:03.276Z,61.19
2019-05-16T06:52:02.794Z,61.50
2019-05-16T06:53:02.786Z,61.70
2019-05-16T06:54:02.777Z,61.47
2019-05-16T06:55:02.764Z,61.06
2019-05-16T06:56:02.750Z,60.96
2019-05-16T06:57:02.745Z,60.52
2019-05-16T06:58:02.726Z,60.83
2019-05-16T06:59:02.729Z,60.21
2019-05-16T07:00:02.709Z,60.42
2019-05-16T07:01:03.680Z,60.72
2019-05-16T07:02:02.683Z,60.62
2019-05-16T07:03:02.673Z,60.21
2019-05-16T07:04:05.055Z,60.93
2019-05-16T07:05:02.660Z,60.52
2019-05-16T07:06:02.644Z,60.52
2019-05-16T07:07:03.282Z,60.90
2019-05-16T07:08:02.630Z,60.42
2019-05-16T07:09:02.618Z,60.72
2019-05-16T07:10:04.701Z,60.83
2019-05-16T07:11:02.586Z,60.62
2019-05-16T07:12:02.578Z,60.80
2019-05-16T07:13:02.570Z,60.28
2019-05-16T07:14:02.564Z,60.49
2019-05-16T07:15:02.543Z,60.90
2019-05-16T07:16:02.532Z,60.46
2019-05-16T07:17:02.522Z,60.19
2019-05-16T07:18:02.514Z,61.41
2019-05-16T07:19:02.507Z,60.87
2019-05-16T07:20:02.504Z,60.87
2019-05-16T07:21:02.478Z,59.03
2019-05-16T07:22:02.469Z,60.36
2019-05-16T07:23:02.460Z,59.23
2019-05-16T07:24:02.458Z,60.33
2019-05-16T07:25:02.444Z,60.23
2019-05-16T07:26:02.425Z,59.72
2019-05-16T07:27:02.432Z,59.52
2019-05-16T07:28:02.405Z,59.62
2019-05-16T07:29:02.404Z,58.29
2019-05-16T07:30:02.411Z,58.39
2019-05-16T07:31:14.443Z,58.91
2019-05-16T07:32:03.363Z,59.11
2019-05-16T07:33:02.350Z,58.98
2019-05-16T07:34:02.353Z,58.80
2019-05-16T07:35:02.725Z,58.91
2019-05-16T07:36:02.375Z,58.78
2019-05-16T07:37:02.307Z,58.67
2019-05-16T07:38:02.302Z,58.47
2019-05-16T07:39:02.299Z,58.80
2019-05-16T07:40:16.201Z,59.08
2019-05-16T07:41:03.265Z,59.49
2019-05-16T07:42:02.254Z,58.78
2019-05-16T07:43:02.242Z,57.45
2019-05-16T07:44:02.242Z,57.52
2019-05-16T07:45:02.221Z,57.42
2019-05-16T07:46:02.218Z,57.90
2019-05-16T07:47:02.200Z,57.50
2019-05-16T07:48:02.189Z,57.70
2019-05-16T07:49:02.214Z,57.57
2019-05-16T07:50:02.168Z,56.78
2019-05-16T07:51:02.205Z,55.94
2019-05-16T07:52:02.222Z,55.53
2019-05-16T07:53:02.134Z,56.65
2019-05-16T07:54:02.140Z,56.04
2019-05-16T07:55:03.925Z,56.04
2019-05-16T07:56:02.102Z,56.52
2019-05-16T07:57:18.602Z,55.81
2019-05-16T07:58:03.081Z,55.10
2019-05-16T07:59:02.073Z,55.20
2019-05-16T08:00:02.088Z,54.79
2019-05-16T08:01:07.592Z,55.38
2019-05-16T08:02:03.039Z,54.87
2019-05-16T08:03:02.030Z,54.87
2019-05-16T08:04:02.084Z,54.24
2019-05-16T08:05:02.017Z,54.33
2019-05-16T08:06:02.164Z,54.44
2019-05-16T08:07:05.514Z,53.72
2019-05-16T08:08:01.977Z,53.70
2019-05-16T08:09:01.965Z,52.98
2019-05-16T08:10:01.970Z,53.19
2019-05-16T08:11:01.966Z,53.02
2019-05-16T08:12:05.477Z,53.72
2019-05-16T08:13:03.293Z,54.33
2019-05-16T08:14:01.919Z,54.44
2019-05-16T08:15:01.933Z,54.31
2019-05-16T08:16:01.892Z,54.41
2019-05-16T08:17:01.877Z,53.50
2019-05-16T08:18:03.257Z,53.78
2019-05-16T08:19:01.856Z,53.17
2019-05-16T08:20:01.878Z,52.98
2019-05-16T08:21:01.834Z,53.27
2019-05-16T08:22:01.821Z,53.47
2019-05-16T08:23:01.838Z,52.86
2019-05-16T08:24:07.439Z,53.67
2019-05-16T08:25:02.804Z,52.86
2019-05-16T08:26:01.790Z,52.86
2019-05-16T08:27:01.766Z,53.24
2019-05-16T08:28:01.759Z,52.86
2019-05-16T08:29:02.250Z,52.56
2019-05-16T08:30:02.685Z,52.05
2019-05-16T08:31:01.724Z,52.66
2019-05-16T08:32:02.263Z,52.73
2019-05-16T08:33:02.795Z,52.45
2019-05-16T08:34:01.724Z,52.35
2019-05-16T08:35:01.694Z,52.66
2019-05-16T08:37:02.655Z,53.17
2019-05-16T08:38:01.687Z,53.27
2019-05-16T08:39:01.637Z,53.17
2019-05-16T08:40:01.659Z,52.86
2019-05-16T08:42:08.032Z,51.92
2019-05-16T08:43:02.592Z,52.23
2019-05-16T08:44:01.583Z,51.72
2019-05-16T08:45:02.148Z,52.23
2019-05-16T08:46:01.575Z,52.51
2019-05-16T08:47:06.158Z,51.39
2019-05-16T08:48:02.574Z,52.10
2019-05-16T08:49:01.538Z,52.20
2019-05-16T08:50:01.553Z,52.30
2019-05-16T08:51:03.882Z,51.79
2019-05-16T08:52:01.695Z,52.10
2019-05-16T08:53:02.819Z,51.70
2019-05-16T08:54:01.763Z,51.46
2019-05-16T08:56:02.799Z,50.56
2019-05-16T08:57:17.542Z,50.56
2019-05-16T08:58:02.872Z,50.56
2019-05-16T08:59:03.306Z,50.93
2019-05-16T09:00:01.804Z,51.46
2019-05-16T09:01:02.410Z,51.98
2019-05-16T09:02:03.191Z,51.85
2019-05-16T09:03:01.851Z,51.04
2019-05-16T09:04:01.622Z,50.91
2019-05-16T09:06:03.056Z,50.38
2019-05-16T09:07:02.113Z,49.24
2019-05-16T09:08:01.323Z,48.74
2019-05-16T09:09:12.171Z,48.51
2019-05-16T09:10:02.353Z,48.82
2019-05-16T09:10:36.027Z,51.26
2019-05-16T09:10:41.206Z,52.56
2019-05-16T09:11:09.468Z,48.41
2019-05-16T09:12:02.279Z,48.39
2019-05-16T09:13:01.268Z,47.58
2019-05-16T09:14:01.257Z,47.66
2019-05-16T09:15:01.248Z,47.35
2019-05-16T09:16:01.238Z,47.15
2019-05-16T09:17:01.225Z,47.25
2019-05-16T09:18:01.215Z,47.86
2019-05-16T09:18:32.825Z,50.28
2019-05-16T09:18:38.997Z,52.23
2019-05-16T09:19:01.229Z,48.14
2019-05-16T09:20:01.198Z,48.54
2019-05-16T09:21:01.187Z,47.94
2019-05-16T09:22:01.212Z,46.83
2019-05-16T09:23:01.167Z,47.74
2019-05-16T09:24:01.179Z,47.03
2019-05-16T09:25:01.146Z,46.52
2019-05-16T09:26:01.137Z,47.00
2019-05-16T09:27:01.117Z,47.20
2019-05-16T09:28:01.107Z,47.11
2019-05-16T09:29:01.096Z,46.91
2019-05-16T09:30:01.134Z,46.60
2019-05-16T09:31:01.079Z,47.00
2019-05-16T09:32:20.268Z,47.11
2019-05-16T09:33:02.054Z,46.17
2019-05-16T09:34:01.045Z,46.07
2019-05-16T09:35:01.031Z,46.68
2019-05-16T09:36:01.025Z,46.17
2019-05-16T09:37:02.061Z,45.97
2019-05-16T09:38:01.001Z,45.54
2019-05-16T09:39:00.988Z,45.25
2019-05-16T09:40:00.979Z,43.91
2019-05-16T09:41:00.971Z,43.91
2019-05-16T09:42:00.979Z,44.11
2019-05-16T09:43:00.946Z,44.01
2019-05-16T09:44:00.937Z,44.21
2019-05-16T09:45:00.976Z,44.11
2019-05-16T09:46:06.949Z,44.21
2019-05-16T09:47:01.900Z,44.31
2019-05-16T09:48:00.891Z,44.09
2019-05-16T09:49:15.757Z,43.91
2019-05-16T09:50:01.871Z,45.22
2019-05-16T09:51:00.860Z,45.81
2019-05-16T09:52:00.847Z,45.00
2019-05-16T09:53:00.836Z,46.01
2019-05-16T09:54:00.835Z,44.90
2019-05-16T09:55:00.817Z,43.59
2019-05-16T09:56:00.814Z,44.09
2019-05-16T09:57:00.792Z,44.21
2019-05-16T09:58:00.785Z,43.91
2019-05-16T09:59:00.775Z,44.21
2019-05-16T10:00:00.760Z,45.34
2019-05-16T10:01:00.763Z,44.71
2019-05-16T10:02:00.737Z,43.71
2019-05-16T10:03:00.728Z,44.51
2019-05-16T10:04:00.716Z,44.62
2019-05-16T10:05:00.710Z,43.79
2019-05-16T10:06:00.717Z,44.09
2019-05-16T10:07:00.684Z,44.19
2019-05-16T10:08:00.674Z,44.19
2019-05-16T10:09:00.662Z,43.79
2019-05-16T10:10:00.654Z,44.39
2019-05-16T10:11:00.639Z,44.29
2019-05-16T10:12:11.338Z,43.97
2019-05-16T10:13:01.618Z,44.47
2019-05-16T10:14:00.609Z,44.27
2019-05-16T10:15:00.597Z,43.85
2019-05-16T10:16:00.595Z,43.24
2019-05-16T10:17:00.586Z,43.44
2019-05-16T10:18:00.565Z,43.54
2019-05-16T10:19:00.556Z,43.24
2019-05-16T10:20:00.544Z,43.12
2019-05-16T10:21:00.532Z,42.64
2019-05-16T10:22:00.551Z,42.94
2019-05-16T10:23:00.555Z,43.74
2019-05-16T10:24:00.498Z,42.94
2019-05-16T10:25:00.489Z,43.85
2019-05-16T10:26:00.478Z,42.66
2019-05-16T10:27:00.477Z,43.37
2019-05-16T10:28:00.457Z,44.19
2019-05-16T10:29:00.446Z,44.19
2019-05-16T10:30:01.247Z,44.19
2019-05-16T10:31:00.425Z,44.37
2019-05-16T10:32:00.425Z,44.17
2019-05-16T10:33:01.000Z,42.66
2019-05-16T10:34:00.395Z,43.57
2019-05-16T10:35:00.380Z,43.74
2019-05-16T10:36:00.370Z,43.44
2019-05-16T10:37:00.370Z,42.52
2019-05-16T10:38:00.349Z,42.72
2019-05-16T10:39:00.340Z,42.74
2019-05-16T10:40:00.325Z,42.72
2019-05-16T10:41:00.315Z,43.12
2019-05-16T10:42:00.359Z,41.81
2019-05-16T10:43:00.296Z,42.72
2019-05-16T10:44:00.283Z,42.70
2019-05-16T10:45:00.312Z,41.49
2019-05-16T10:46:00.261Z,42.40
2019-05-16T10:47:00.262Z,41.19
2019-05-16T10:48:00.241Z,41.39
2019-05-16T10:49:00.249Z,41.59
2019-05-16T10:50:00.259Z,42.10
2019-05-16T10:51:00.207Z,42.80
2019-05-16T10:52:00.208Z,42.80
2019-05-16T10:53:22.398Z,42.10
2019-05-16T10:54:09.763Z,41.77
2019-05-16T10:55:02.594Z,41.06
2019-05-16T10:56:00.170Z,41.77
2019-05-16T10:57:00.262Z,41.45
2019-05-16T10:58:00.133Z,41.05
2019-05-16T10:59:45.903Z,41.45
2019-05-16T11:00:09.004Z,40.83
2019-05-16T11:01:23.046Z,40.92
2019-05-16T11:02:01.102Z,40.73
2019-05-16T11:03:00.108Z,41.01
2019-05-16T11:04:00.068Z,40.81
2019-05-16T11:05:20.315Z,39.18
2019-05-16T11:06:06.043Z,39.98
2019-05-16T11:07:01.046Z,40.11
2019-05-16T11:08:00.308Z,39.70
2019-05-16T11:09:00.032Z,40.20
2019-05-16T11:10:03.491Z,39.50
2019-05-16T11:10:59.995Z,40.73
2019-05-16T11:11:59.992Z,40.73
2019-05-16T11:12:59.970Z,39.52
2019-05-16T11:13:59.961Z,38.90
2019-05-16T11:14:59.949Z,38.92
2019-05-16T11:15:59.937Z,40.42
2019-05-16T11:16:59.958Z,40.12
2019-05-16T11:18:00.223Z,40.42
2019-05-16T11:19:14.167Z,40.73
2019-05-16T11:20:00.894Z,39.42
2019-05-16T11:20:59.886Z,39.92
2019-05-16T11:21:59.883Z,40.02
2019-05-16T11:22:59.879Z,40.14
2019-05-16T11:23:59.852Z,40.55
2019-05-16T11:24:59.868Z,40.56
2019-05-16T11:25:59.830Z,41.35
2019-05-16T11:26:59.817Z,40.24
2019-05-16T11:27:59.827Z,40.66
2019-05-16T11:28:59.797Z,40.84
2019-05-16T11:29:59.786Z,41.25
2019-05-16T11:31:03.623Z,40.84
2019-05-16T11:31:59.767Z,41.15
2019-05-16T11:32:59.765Z,40.75
2019-05-16T11:33:59.743Z,41.85
2019-05-16T11:34:59.731Z,41.65
2019-05-16T11:35:59.721Z,41.75
2019-05-16T11:36:59.715Z,41.75
2019-05-16T11:37:59.716Z,41.03
2019-05-16T11:39:01.937Z,40.92
2019-05-16T11:39:59.683Z,40.61
2019-05-16T11:40:59.669Z,41.31
2019-05-16T11:41:59.659Z,40.70
2019-05-16T11:43:10.118Z,41.31
2019-05-16T11:44:00.635Z,40.08
2019-05-16T11:44:59.627Z,39.98
2019-05-16T11:45:59.615Z,40.69
2019-05-16T11:46:59.603Z,40.19
2019-05-16T11:47:59.603Z,40.19
2019-05-16T11:48:59.584Z,38.86
2019-05-16T11:49:59.571Z,38.86
2019-05-16T11:50:59.559Z,39.66
2019-05-16T11:51:59.555Z,39.04
2019-05-16T11:52:59.555Z,37.74
2019-05-16T11:54:00.135Z,38.53
2019-05-16T11:54:59.516Z,37.92
2019-05-16T11:56:01.595Z,38.60
2019-05-16T11:56:59.494Z,37.68
2019-05-16T11:57:59.496Z,38.17
2019-05-16T11:58:59.477Z,37.65
2019-05-16T11:59:59.461Z,37.03
2019-05-16T12:00:59.452Z,36.51
2019-05-16T12:01:59.440Z,36.51
2019-05-16T12:02:59.441Z,36.91
2019-05-16T12:03:59.418Z,36.43
2019-05-16T12:04:59.409Z,36.43
2019-05-16T12:05:59.396Z,36.43
2019-05-16T12:06:59.385Z,37.03
2019-05-16T12:07:59.393Z,36.83
2019-05-16T12:08:59.379Z,36.61
2019-05-16T12:09:59.359Z,35.93
2019-05-16T12:10:59.342Z,36.63
2019-05-16T12:12:03.933Z,36.43
2019-05-16T12:13:00.330Z,35.43
2019-05-16T12:13:59.311Z,35.44
2019-05-16T12:14:59.299Z,35.33
2019-05-16T12:15:59.287Z,36.63
2019-05-16T12:16:59.279Z,37.33
2019-05-16T12:18:04.278Z,36.47
2019-05-16T12:19:00.253Z,35.24
2019-05-16T12:19:59.244Z,33.03
2019-05-16T12:20:59.234Z,33.61
2019-05-16T12:21:59.223Z,33.88
2019-05-16T12:22:59.221Z,33.05
2019-05-16T12:23:59.215Z,32.93
2019-05-16T12:24:59.192Z,31.60
2019-05-16T12:26:00.232Z,32.20
2019-05-16T12:27:00.782Z,30.72
2019-05-16T12:27:59.163Z,31.23
2019-05-16T12:28:59.152Z,31.02
2019-05-16T12:29:59.238Z,31.23
2019-05-16T12:30:59.129Z,31.73
2019-05-16T12:32:02.705Z,30.02
2019-05-16T12:32:59.110Z,28.44
2019-05-16T12:33:59.862Z,26.29
2019-05-16T12:34:59.088Z,24.96
2019-05-16T12:35:59.076Z,23.82
2019-05-16T12:36:59.080Z,23.38
2019-05-16T12:37:59.056Z,22.14
2019-05-16T12:38:59.057Z,20.84
2019-05-16T12:39:59.037Z,20.96
2019-05-16T12:40:59.025Z,21.80
2019-05-16T12:42:00.107Z,24.23
2019-05-16T12:42:59.006Z,25.97
2019-05-16T12:43:59.010Z,26.21
2019-05-16T12:44:58.984Z,27.43
2019-05-16T12:45:58.978Z,28.63
2019-05-16T12:46:58.965Z,28.85
2019-05-16T12:47:58.957Z,28.75
2019-05-16T12:48:58.955Z,29.06
2019-05-16T12:49:58.932Z,29.06
2019-05-16T12:50:59.236Z,28.94
2019-05-16T12:51:58.912Z,27.38